New Johannesburg, Wisconsin
Current Conditions -  °F | °C
As of 4:55 PM on Saturday 25 Oct 2014 (Local Time) from KRNH Reporting Station
Clear Clear  
Wind Chill: 61°   Ceiling: Unl
Heat Index: 61°   Visibility: 10mi
Dew Point: 22°   Wind: 14mph
Humidity: 23%   Direction: 300°WNW
Pressure: 30.01"   Gusts: 20mph
Location:  45.1804°N, 92.551°W
Report Text: KRNH 252155Z AUTO 30012G17KT 10SM CLR 16/M05 A3001 RMK AO2 T01601054
Loading
Personal Weather Stations






























Interactive Weather Map
Tropical Storm Tracking
New forecast layout! Learn more

10-Day Weather Forecast

Advertisements
Track Severe Weather on mobile